sensor_id;sensor_type;location;lat;lon;timestamp;noise_LAeq;noise_LA_min;noise_LA_max;noise_LA01;noise_LA95
69670;Laerm;66535;52.370;4.832;2024-01-06T00:00:12;47.16;41.59;55.16;;
69670;Laerm;66535;52.370;4.832;2024-01-06T00:00:43;45.27;41.18;51.48;;
69670;Laerm;66535;52.370;4.832;2024-01-06T00:01:16;47.57;43.32;57.17;;
69670;Laerm;66535;52.370;4.832;2024-01-06T00:01:47;49.21;44.73;58.28;;
69670;Laerm;66535;52.370;4.832;2024-01-06T00:02:19;49.43;44.53;56.24;;
69670;Laerm;66535;52.370;4.832;2024-01-06T00:02:50;46.86;43.41;52.41;;
69670;Laerm;66535;52.370;4.832;2024-01-06T00:03:22;43.56;40.50;47.11;;
69670;Laerm;66535;52.370;4.832;2024-01-06T00:03:55;44.98;40.50;51.49;;
69670;Laerm;66535;52.370;4.832;2024-01-06T00:04:26;47.33;42.44;55.23;;
69670;Laerm;66535;52.370;4.832;2024-01-06T00:04:58;46.21;41.46;52.11;;
69670;Laerm;66535;52.370;4.832;2024-01-06T00:05:29;43.64;39.87;51.67;;
69670;Laerm;66535;52.370;4.832;2024-01-06T00:06:00;48.11;41.05;61.65;;
69670;Laerm;66535;52.370;4.832;2024-01-06T00:06:32;51.29;43.47;64.75;;
69670;Laerm;66535;52.370;4.832;2024-01-06T00:07:04;44.17;40.74;50.09;;
69670;Laerm;66535;52.370;4.832;2024-01-06T00:07:35;44.22;38.60;54.30;;
69670;Laerm;66535;52.370;4.832;2024-01-06T00:08:06;43.01;38.34;49.48;;
69670;Laerm;66535;52.370;4.832;2024-01-06T00:08:37;42.53;38.77;46.87;;
69670;Laerm;66535;52.370;4.832;2024-01-06T00:09:10;42.85;39.72;50.73;;
69670;Laerm;66535;52.370;4.832;2024-01-06T00:09:41;45.69;41.36;51.20;;
69670;Laerm;66535;52.370;4.832;2024-01-06T00:10:12;47.57;40.23;52.70;;
69670;Laerm;66535;52.370;4.832;2024-01-06T00:10:44;46.01;40.49;55.58;;
69670;Laerm;66535;52.370;4.832;2024-01-06T00:11:15;45.04;39.82;50.30;;
69670;Laerm;66535;52.370;4.832;2024-01-06T00:11:47;45.97;42.21;51.17;;
69670;Laerm;66535;52.370;4.832;2024-01-06T00:12:18;46.19;39.88;59.94;;
69670;Laerm;66535;52.370;4.832;2024-01-06T00:12:49;45.64;39.70;53.91;;
69670;Laerm;66535;52.370;4.832;2024-01-06T00:13:23;41.73;39.10;47.26;;
69670;Laerm;66535;52.370;4.832;2024-01-06T00:13:57;45.77;39.80;51.81;;
69670;Laerm;66535;52.370;4.832;2024-01-06T00:14:31;44.68;40.90;49.74;;
69670;Laerm;66535;52.370;4.832;2024-01-06T00:15:06;48.98;41.36;58.45;;
69670;Laerm;66535;52.370;4.832;2024-01-06T00:15:37;47.69;43.93;50.95;;
69670;Laerm;66535;52.370;4.832;2024-01-06T00:16:09;46.05;42.43;54.09;;
69670;Laerm;66535;52.370;4.832;2024-01-06T00:16:40;49.15;44.54;56.28;;
69670;Laerm;66535;52.370;4.832;2024-01-06T00:17:12;51.94;41.33;65.38;;
69670;Laerm;66535;52.370;4.832;2024-01-06T00:17:45;56.90;43.49;79.38;;
69670;Laerm;66535;52.370;4.832;2024-01-06T00:18:16;52.27;42.19;69.99;;
69670;Laerm;66535;52.370;4.832;2024-01-06T00:18:50;51.19;41.58;63.69;;
69670;Laerm;66535;52.370;4.832;2024-01-06T00:19:22;51.73;40.86;59.81;;
69670;Laerm;66535;52.370;4.832;2024-01-06T00:19:53;47.28;42.72;54.04;;
69670;Laerm;66535;52.370;4.832;2024-01-06T00:20:25;48.03;41.24;57.14;;
69670;Laerm;66535;52.370;4.832;2024-01-06T00:20:58;52.24;42.46;66.29;;
69670;Laerm;66535;52.370;4.832;2024-01-06T00:21:29;46.25;41.06;52.28;;
69670;Laerm;66535;52.370;4.832;2024-01-06T00:22:00;43.25;39.24;48.88;;
69670;Laerm;66535;52.370;4.832;2024-01-06T00:22:31;45.71;40.25;54.99;;
69670;Laerm;66535;52.370;4.832;2024-01-06T00:23:03;47.07;41.70;57.33;;
69670;Laerm;66535;52.370;4.832;2024-01-06T00:23:35;46.72;42.58;51.42;;
69670;Laerm;66535;52.370;4.832;2024-01-06T00:24:06;45.97;39.91;54.31;;
69670;Laerm;66535;52.370;4.832;2024-01-06T00:24:37;46.40;41.50;52.41;;
69670;Laerm;66535;52.370;4.832;2024-01-06T00:25:09;41.78;39.02;45.63;;
69670;Laerm;66535;52.370;4.832;2024-01-06T00:25:40;48.79;43.03;59.63;;
69670;Laerm;66535;52.370;4.832;2024-01-06T00:26:11;50.58;43.76;59.90;;
69670;Laerm;66535;52.370;4.832;2024-01-06T00:26:43;47.01;43.12;52.38;;
69670;Laerm;66535;52.370;4.832;2024-01-06T00:27:15;57.12;43.42;74.91;;
69670;Laerm;66535;52.370;4.832;2024-01-06T00:27:47;48.01;41.83;57.85;;
69670;Laerm;66535;52.370;4.832;2024-01-06T00:28:18;46.26;41.45;49.90;;
69670;Laerm;66535;52.370;4.832;2024-01-06T00:28:49;43.90;40.57;52.42;;
69670;Laerm;66535;52.370;4.832;2024-01-06T00:29:20;50.80;43.84;59.97;;
69670;Laerm;66535;52.370;4.832;2024-01-06T00:29:52;44.55;39.84;51.44;;
69670;Laerm;66535;52.370;4.832;2024-01-06T00:30:24;50.11;43.50;60.26;;
69670;Laerm;66535;52.370;4.832;2024-01-06T00:30:55;48.58;43.32;57.55;;
69670;Laerm;66535;52.370;4.832;2024-01-06T00:31:27;44.15;41.80;47.19;;
69670;Laerm;66535;52.370;4.832;2024-01-06T00:31:58;46.47;41.91;51.86;;
69670;Laerm;66535;52.370;4.832;2024-01-06T00:32:29;43.20;38.80;53.56;;
69670;Laerm;66535;52.370;4.832;2024-01-06T00:33:01;41.78;38.74;49.86;;
69670;Laerm;66535;52.370;4.832;2024-01-06T00:33:33;47.18;41.11;55.03;;
69670;Laerm;66535;52.370;4.832;2024-01-06T00:34:04;44.32;40.54;50.90;;
69670;Laerm;66535;52.370;4.832;2024-01-06T00:34:37;42.91;40.42;47.44;;
69670;Laerm;66535;52.370;4.832;2024-01-06T00:35:08;46.06;40.44;55.83;;
69670;Laerm;66535;52.370;4.832;2024-01-06T00:35:40;46.64;41.51;56.82;;
69670;Laerm;66535;52.370;4.832;2024-01-06T00:36:11;48.53;41.64;59.46;;
69670;Laerm;66535;52.370;4.832;2024-01-06T00:36:42;45.26;41.93;49.86;;
69670;Laerm;66535;52.370;4.832;2024-01-06T00:37:15;50.07;44.09;56.96;;
69670;Laerm;66535;52.370;4.832;2024-01-06T00:37:46;46.30;41.84;52.23;;
69670;Laerm;66535;52.370;4.832;2024-01-06T00:38:17;45.82;42.43;52.39;;
69670;Laerm;66535;52.370;4.832;2024-01-06T00:38:49;48.63;42.99;56.32;;
69670;Laerm;66535;52.370;4.832;2024-01-06T00:39:21;44.54;41.26;50.88;;
69670;Laerm;66535;52.370;4.832;2024-01-06T00:39:53;45.15;41.30;51.54;;
69670;Laerm;66535;52.370;4.832;2024-01-06T00:40:24;46.59;41.24;54.73;;
69670;Laerm;66535;52.370;4.832;2024-01-06T00:40:56;43.67;39.12;58.41;;
69670;Laerm;66535;52.370;4.832;2024-01-06T00:41:27;48.08;41.01;61.47;;
69670;Laerm;66535;52.370;4.832;2024-01-06T00:41:58;44.85;41.63;49.78;;
69670;Laerm;66535;52.370;4.832;2024-01-06T00:42:30;46.71;42.28;54.34;;
69670;Laerm;66535;52.370;4.832;2024-01-06T00:43:02;45.59;40.91;52.16;;
69670;Laerm;66535;52.370;4.832;2024-01-06T00:43:33;42.70;38.82;47.51;;
69670;Laerm;66535;52.370;4.832;2024-01-06T00:44:04;45.03;40.25;53.93;;
69670;Laerm;66535;52.370;4.832;2024-01-06T00:44:36;44.91;40.60;51.81;;
69670;Laerm;66535;52.370;4.832;2024-01-06T00:45:09;47.41;42.21;55.93;;
69670;Laerm;66535;52.370;4.832;2024-01-06T00:45:40;46.49;40.73;57.54;;
69670;Laerm;66535;52.370;4.832;2024-01-06T00:46:11;48.36;42.10;59.37;;
69670;Laerm;66535;52.370;4.832;2024-01-06T00:46:42;45.35;40.52;52.04;;
69670;Laerm;66535;52.370;4.832;2024-01-06T00:47:15;47.40;42.93;52.03;;
69670;Laerm;66535;52.370;4.832;2024-01-06T00:47:46;44.28;40.68;50.15;;
69670;Laerm;66535;52.370;4.832;2024-01-06T00:48:17;46.98;39.68;66.87;;
69670;Laerm;66535;52.370;4.832;2024-01-06T00:48:48;42.00;39.16;49.37;;
69670;Laerm;66535;52.370;4.832;2024-01-06T00:49:21;44.30;39.02;54.55;;
69670;Laerm;66535;52.370;4.832;2024-01-06T00:49:53;45.04;39.67;53.30;;
69670;Laerm;66535;52.370;4.832;2024-01-06T00:50:24;49.18;41.63;57.50;;
69670;Laerm;66535;52.370;4.832;2024-01-06T00:50:58;45.23;40.51;50.65;;
69670;Laerm;66535;52.370;4.832;2024-01-06T00:51:30;45.47;40.89;53.75;;
69670;Laerm;66535;52.370;4.832;2024-01-06T00:52:02;47.91;41.07;55.64;;
69670;Laerm;66535;52.370;4.832;2024-01-06T00:52:33;41.23;39.32;46.18;;
69670;Laerm;66535;52.370;4.832;2024-01-06T00:53:04;44.03;39.64;48.34;;
69670;Laerm;66535;52.370;4.832;2024-01-06T00:53:36;50.07;41.63;55.35;;
69670;Laerm;66535;52.370;4.832;2024-01-06T00:54:08;45.05;40.44;50.41;;
69670;Laerm;66535;52.370;4.832;2024-01-06T00:54:39;46.33;39.63;51.07;;
69670;Laerm;66535;52.370;4.832;2024-01-06T00:55:10;47.72;39.54;56.52;;
69670;Laerm;66535;52.370;4.832;2024-01-06T00:55:42;46.16;40.31;56.27;;
69670;Laerm;66535;52.370;4.832;2024-01-06T00:56:14;46.96;41.68;52.42;;
69670;Laerm;66535;52.370;4.832;2024-01-06T00:56:45;51.47;43.67;63.01;;
69670;Laerm;66535;52.370;4.832;2024-01-06T00:57:16;49.78;41.67;60.45;;
69670;Laerm;66535;52.370;4.832;2024-01-06T00:57:48;43.06;39.73;56.51;;
69670;Laerm;66535;52.370;4.832;2024-01-06T00:58:23;43.52;40.63;50.67;;
69670;Laerm;66535;52.370;4.832;2024-01-06T00:58:54;46.19;40.97;54.98;;
69670;Laerm;66535;52.370;4.832;2024-01-06T00:59:25;44.57;40.12;51.85;;
69670;Laerm;66535;52.370;4.832;2024-01-06T00:59:58;50.47;42.12;67.62;;
69670;Laerm;66535;52.370;4.832;2024-01-06T01:00:29;46.54;40.69;55.01;;
69670;Laerm;66535;52.370;4.832;2024-01-06T01:01:00;44.50;41.28;51.68;;
69670;Laerm;66535;52.370;4.832;2024-01-06T01:01:31;52.02;42.25;62.54;;
69670;Laerm;66535;52.370;4.832;2024-01-06T01:02:03;49.71;42.52;64.32;;
69670;Laerm;66535;52.370;4.832;2024-01-06T01:02:35;46.73;41.12;61.06;;
69670;Laerm;66535;52.370;4.832;2024-01-06T01:03:06;44.54;41.20;47.51;;
69670;Laerm;66535;52.370;4.832;2024-01-06T01:03:38;48.10;40.42;55.89;;
69670;Laerm;66535;52.370;4.832;2024-01-06T01:04:09;40.88;38.78;43.21;;
69670;Laerm;66535;52.370;4.832;2024-01-06T01:04:41;42.69;39.40;47.30;;
69670;Laerm;66535;52.370;4.832;2024-01-06T01:05:14;47.16;41.50;56.94;;
69670;Laerm;66535;52.370;4.832;2024-01-06T01:05:45;48.62;44.68;54.79;;
69670;Laerm;66535;52.370;4.832;2024-01-06T01:06:16;48.63;45.21;60.51;;
69670;Laerm;66535;52.370;4.832;2024-01-06T01:06:48;46.24;39.06;53.90;;
69670;Laerm;66535;52.370;4.832;2024-01-06T01:07:19;40.30;38.23;44.30;;
69670;Laerm;66535;52.370;4.832;2024-01-06T01:07:51;40.72;38.56;45.22;;
69670;Laerm;66535;52.370;4.832;2024-01-06T01:08:22;50.45;42.33;61.90;;
69670;Laerm;66535;52.370;4.832;2024-01-06T01:08:53;48.64;42.26;56.36;;
69670;Laerm;66535;52.370;4.832;2024-01-06T01:09:25;42.97;39.78;50.48;;
69670;Laerm;66535;52.370;4.832;2024-01-06T01:09:56;48.92;41.81;64.72;;
69670;Laerm;66535;52.370;4.832;2024-01-06T01:10:27;50.73;42.73;58.02;;
69670;Laerm;66535;52.370;4.832;2024-01-06T01:10:59;47.70;41.78;58.92;;
69670;Laerm;66535;52.370;4.832;2024-01-06T01:11:30;45.71;42.15;53.32;;
69670;Laerm;66535;52.370;4.832;2024-01-06T01:12:02;45.08;41.35;50.37;;
69670;Laerm;66535;52.370;4.832;2024-01-06T01:12:34;43.40;40.75;47.48;;
69670;Laerm;66535;52.370;4.832;2024-01-06T01:13:05;45.84;39.77;55.27;;
69670;Laerm;66535;52.370;4.832;2024-01-06T01:13:37;46.60;39.22;59.43;;
69670;Laerm;66535;52.370;4.832;2024-01-06T01:14:09;45.19;38.60;54.61;;
69670;Laerm;66535;52.370;4.832;2024-01-06T01:14:40;46.96;40.85;54.94;;
69670;Laerm;66535;52.370;4.832;2024-01-06T01:15:11;46.09;41.90;49.62;;
69670;Laerm;66535;52.370;4.832;2024-01-06T01:15:43;46.05;42.55;50.13;;
69670;Laerm;66535;52.370;4.832;2024-01-06T01:16:15;49.20;41.37;58.12;;
69670;Laerm;66535;52.370;4.832;2024-01-06T01:16:46;46.50;41.68;53.10;;
69670;Laerm;66535;52.370;4.832;2024-01-06T01:17:17;47.45;41.00;58.52;;
69670;Laerm;66535;52.370;4.832;2024-01-06T01:17:49;41.71;39.25;46.49;;
69670;Laerm;66535;52.370;4.832;2024-01-06T01:18:21;42.86;40.41;48.39;;
69670;Laerm;66535;52.370;4.832;2024-01-06T01:18:52;43.07;38.84;47.29;;
69670;Laerm;66535;52.370;4.832;2024-01-06T01:19:23;44.75;40.71;56.49;;
69670;Laerm;66535;52.370;4.832;2024-01-06T01:19:55;48.34;40.30;56.82;;
69670;Laerm;66535;52.370;4.832;2024-01-06T01:20:27;50.28;44.47;56.83;;
69670;Laerm;66535;52.370;4.832;2024-01-06T01:20:59;48.40;42.86;55.48;;
69670;Laerm;66535;52.370;4.832;2024-01-06T01:21:31;46.42;41.77;55.58;;
69670;Laerm;66535;52.370;4.832;2024-01-06T01:22:02;47.39;41.33;55.03;;
69670;Laerm;66535;52.370;4.832;2024-01-06T01:22:34;49.93;44.69;54.48;;
69670;Laerm;66535;52.370;4.832;2024-01-06T01:23:05;49.00;42.96;61.73;;
69670;Laerm;66535;52.370;4.832;2024-01-06T01:23:36;46.88;43.52;54.35;;
69670;Laerm;66535;52.370;4.832;2024-01-06T01:24:08;48.64;44.25;60.15;;
69670;Laerm;66535;52.370;4.832;2024-01-06T01:24:40;47.60;40.62;58.62;;
69670;Laerm;66535;52.370;4.832;2024-01-06T01:25:11;41.58;38.42;50.86;;
69670;Laerm;66535;52.370;4.832;2024-01-06T01:25:43;42.23;39.13;47.80;;
69670;Laerm;66535;52.370;4.832;2024-01-06T01:26:15;44.25;39.35;54.96;;
69670;Laerm;66535;52.370;4.832;2024-01-06T01:26:47;45.74;41.53;58.13;;
69670;Laerm;66535;52.370;4.832;2024-01-06T01:27:18;43.68;39.36;60.69;;
69670;Laerm;66535;52.370;4.832;2024-01-06T01:27:49;44.63;38.81;62.52;;
69670;Laerm;66535;52.370;4.832;2024-01-06T01:28:20;46.38;39.44;54.17;;
69670;Laerm;66535;52.370;4.832;2024-01-06T01:28:51;45.08;38.86;55.49;;
69670;Laerm;66535;52.370;4.832;2024-01-06T01:29:24;42.45;38.53;51.51;;
69670;Laerm;66535;52.370;4.832;2024-01-06T01:29:55;47.39;39.24;56.54;;
69670;Laerm;66535;52.370;4.832;2024-01-06T01:30:27;44.75;39.35;52.41;;
69670;Laerm;66535;52.370;4.832;2024-01-06T01:30:58;43.75;39.80;47.29;;
69670;Laerm;66535;52.370;4.832;2024-01-06T01:31:30;49.72;41.29;57.29;;
69670;Laerm;66535;52.370;4.832;2024-01-06T01:32:01;44.07;40.84;48.92;;
69670;Laerm;66535;52.370;4.832;2024-01-06T01:32:33;47.09;40.37;55.37;;
69670;Laerm;66535;52.370;4.832;2024-01-06T01:33:04;46.47;42.98;53.04;;
69670;Laerm;66535;52.370;4.832;2024-01-06T01:33:36;45.18;40.16;51.46;;
69670;Laerm;66535;52.370;4.832;2024-01-06T01:34:07;43.72;38.52;49.67;;
69670;Laerm;66535;52.370;4.832;2024-01-06T01:34:38;47.40;43.47;50.70;;
69670;Laerm;66535;52.370;4.832;2024-01-06T01:35:10;47.28;43.16;59.05;;
69670;Laerm;66535;52.370;4.832;2024-01-06T01:35:43;50.05;41.18;58.78;;
69670;Laerm;66535;52.370;4.832;2024-01-06T01:36:14;43.49;39.85;55.08;;
69670;Laerm;66535;52.370;4.832;2024-01-06T01:36:46;49.17;42.57;59.51;;
69670;Laerm;66535;52.370;4.832;2024-01-06T01:37:17;51.49;44.26;60.16;;
69670;Laerm;66535;52.370;4.832;2024-01-06T01:37:49;46.84;41.78;52.90;;
69670;Laerm;66535;52.370;4.832;2024-01-06T01:38:20;44.68;40.71;49.84;;
69670;Laerm;66535;52.370;4.832;2024-01-06T01:38:51;48.43;43.72;55.93;;
69670;Laerm;66535;52.370;4.832;2024-01-06T01:39:22;42.91;38.97;47.94;;
69670;Laerm;66535;52.370;4.832;2024-01-06T01:39:55;40.73;36.39;50.23;;
69670;Laerm;66535;52.370;4.832;2024-01-06T01:40:26;38.39;36.36;42.37;;
69670;Laerm;66535;52.370;4.832;2024-01-06T01:40:57;46.95;37.58;56.07;;
69670;Laerm;66535;52.370;4.832;2024-01-06T01:41:30;47.08;41.90;52.26;;
69670;Laerm;66535;52.370;4.832;2024-01-06T01:42:02;48.56;43.29;57.44;;
69670;Laerm;66535;52.370;4.832;2024-01-06T01:42:34;43.99;39.41;51.30;;
69670;Laerm;66535;52.370;4.832;2024-01-06T01:43:05;42.65;38.48;48.89;;
69670;Laerm;66535;52.370;4.832;2024-01-06T01:43:37;40.94;38.31;47.53;;
69670;Laerm;66535;52.370;4.832;2024-01-06T01:44:10;42.82;38.52;49.05;;
69670;Laerm;66535;52.370;4.832;2024-01-06T01:44:42;44.75;41.59;51.16;;
69670;Laerm;66535;52.370;4.832;2024-01-06T01:45:13;46.55;39.19;54.78;;
69670;Laerm;66535;52.370;4.832;2024-01-06T01:45:46;43.67;39.53;50.84;;
69670;Laerm;66535;52.370;4.832;2024-01-06T01:46:20;40.55;38.14;46.02;;
69670;Laerm;66535;52.370;4.832;2024-01-06T01:46:51;40.66;37.66;48.78;;
69670;Laerm;66535;52.370;4.832;2024-01-06T01:47:23;44.94;37.82;56.76;;
69670;Laerm;66535;52.370;4.832;2024-01-06T01:47:54;39.51;37.44;42.55;;
69670;Laerm;66535;52.370;4.832;2024-01-06T01:48:26;42.96;38.80;48.80;;
69670;Laerm;66535;52.370;4.832;2024-01-06T01:48:59;45.69;42.13;50.22;;
69670;Laerm;66535;52.370;4.832;2024-01-06T01:49:30;44.17;39.74;49.15;;
69670;Laerm;66535;52.370;4.832;2024-01-06T01:50:04;43.99;38.85;48.41;;
69670;Laerm;66535;52.370;4.832;2024-01-06T01:50:35;50.16;42.78;58.35;;
69670;Laerm;66535;52.370;4.832;2024-01-06T01:51:08;47.84;41.10;58.59;;
69670;Laerm;66535;52.370;4.832;2024-01-06T01:51:40;45.18;38.78;54.66;;
69670;Laerm;66535;52.370;4.832;2024-01-06T01:52:14;46.88;42.12;55.55;;
69670;Laerm;66535;52.370;4.832;2024-01-06T01:52:45;44.50;39.94;54.37;;
69670;Laerm;66535;52.370;4.832;2024-01-06T01:53:17;46.35;39.07;56.63;;
69670;Laerm;66535;52.370;4.832;2024-01-06T01:53:48;46.91;39.55;55.00;;
69670;Laerm;66535;52.370;4.832;2024-01-06T01:54:21;44.13;39.39;51.22;;
69670;Laerm;66535;52.370;4.832;2024-01-06T01:54:52;40.77;38.32;50.51;;
69670;Laerm;66535;52.370;4.832;2024-01-06T01:55:23;44.19;40.05;52.21;;
69670;Laerm;66535;52.370;4.832;2024-01-06T01:55:55;44.13;38.83;49.42;;
69670;Laerm;66535;52.370;4.832;2024-01-06T01:56:27;41.57;39.02;47.75;;
69670;Laerm;66535;52.370;4.832;2024-01-06T01:57:04;52.53;39.93;66.34;;
69670;Laerm;66535;52.370;4.832;2024-01-06T01:57:36;48.52;39.28;58.48;;
69670;Laerm;66535;52.370;4.832;2024-01-06T01:58:07;41.29;38.56;44.71;;
69670;Laerm;66535;52.370;4.832;2024-01-06T01:58:39;45.37;38.32;54.12;;
69670;Laerm;66535;52.370;4.832;2024-01-06T01:59:13;45.33;39.29;52.68;;
69670;Laerm;66535;52.370;4.832;2024-01-06T01:59:44;45.12;41.15;51.85;;
69670;Laerm;66535;52.370;4.832;2024-01-06T02:00:17;47.29;40.34;56.31;;
69670;Laerm;66535;52.370;4.832;2024-01-06T02:00:48;44.16;39.46;54.23;;
69670;Laerm;66535;52.370;4.832;2024-01-06T02:01:20;40.55;37.82;45.43;;
69670;Laerm;66535;52.370;4.832;2024-01-06T02:01:51;41.64;37.97;52.04;;
69670;Laerm;66535;52.370;4.832;2024-01-06T02:02:24;42.92;39.00;60.81;;
69670;Laerm;66535;52.370;4.832;2024-01-06T02:02:55;48.92;39.56;59.92;;
69670;Laerm;66535;52.370;4.832;2024-01-06T02:03:26;46.32;39.66;53.59;;
69670;Laerm;66535;52.370;4.832;2024-01-06T02:04:00;47.70;42.73;55.25;;
69670;Laerm;66535;52.370;4.832;2024-01-06T02:04:33;47.23;42.74;53.16;;
69670;Laerm;66535;52.370;4.832;2024-01-06T02:05:04;46.38;39.06;53.58;;
69670;Laerm;66535;52.370;4.832;2024-01-06T02:05:35;42.70;39.25;48.64;;
69670;Laerm;66535;52.370;4.832;2024-01-06T02:06:08;45.33;38.66;53.27;;
69670;Laerm;66535;52.370;4.832;2024-01-06T02:06:41;39.29;36.82;41.61;;
69670;Laerm;66535;52.370;4.832;2024-01-06T02:07:12;40.42;37.64;43.18;;
69670;Laerm;66535;52.370;4.832;2024-01-06T02:07:43;43.95;38.56;49.96;;
69670;Laerm;66535;52.370;4.832;2024-01-06T02:08:15;39.96;38.00;42.01;;
69670;Laerm;66535;52.370;4.832;2024-01-06T02:08:47;40.91;37.48;44.71;;
69670;Laerm;66535;52.370;4.832;2024-01-06T02:09:18;48.98;40.25;59.67;;
69670;Laerm;66535;52.370;4.832;2024-01-06T02:09:50;43.61;40.65;46.06;;
69670;Laerm;66535;52.370;4.832;2024-01-06T02:10:21;40.14;38.07;45.80;;
69670;Laerm;66535;52.370;4.832;2024-01-06T02:10:54;53.30;38.40;62.60;;
69670;Laerm;66535;52.370;4.832;2024-01-06T02:11:25;45.80;39.07;55.00;;
69670;Laerm;66535;52.370;4.832;2024-01-06T02:11:57;43.42;38.61;54.00;;
69670;Laerm;66535;52.370;4.832;2024-01-06T02:12:28;42.28;39.55;45.50;;
69670;Laerm;66535;52.370;4.832;2024-01-06T02:13:07;44.02;38.50;53.75;;
69670;Laerm;66535;52.370;4.832;2024-01-06T02:13:39;50.03;44.00;55.52;;
69670;Laerm;66535;52.370;4.832;2024-01-06T02:14:10;44.35;39.05;49.39;;
69670;Laerm;66535;52.370;4.832;2024-01-06T02:14:42;42.04;38.94;48.61;;
69670;Laerm;66535;52.370;4.832;2024-01-06T02:15:15;41.31;36.83;55.16;;
69670;Laerm;66535;52.370;4.832;2024-01-06T02:15:46;43.83;36.50;53.89;;
69670;Laerm;66535;52.370;4.832;2024-01-06T02:16:17;47.73;39.24;56.58;;
69670;Laerm;66535;52.370;4.832;2024-01-06T02:16:49;44.48;39.27;52.11;;
69670;Laerm;66535;52.370;4.832;2024-01-06T02:17:21;45.60;39.29;56.16;;
69670;Laerm;66535;52.370;4.832;2024-01-06T02:17:52;45.23;38.84;54.35;;
69670;Laerm;66535;52.370;4.832;2024-01-06T02:18:23;41.33;36.60;47.93;;
69670;Laerm;66535;52.370;4.832;2024-01-06T02:18:55;39.65;37.49;43.35;;
69670;Laerm;66535;52.370;4.832;2024-01-06T02:19:28;44.46;39.81;50.33;;
69670;Laerm;66535;52.370;4.832;2024-01-06T02:20:00;43.13;37.29;47.43;;
69670;Laerm;66535;52.370;4.832;2024-01-06T02:20:32;41.12;37.34;47.64;;
69670;Laerm;66535;52.370;4.832;2024-01-06T02:21:03;40.32;38.26;43.66;;
69670;Laerm;66535;52.370;4.832;2024-01-06T02:21:41;46.21;37.80;54.97;;
69670;Laerm;66535;52.370;4.832;2024-01-06T02:22:14;43.99;38.08;50.99;;
69670;Laerm;66535;52.370;4.832;2024-01-06T02:22:46;44.57;39.31;50.46;;
69670;Laerm;66535;52.370;4.832;2024-01-06T02:23:17;52.04;42.16;62.63;;
69670;Laerm;66535;52.370;4.832;2024-01-06T02:23:48;42.82;38.86;48.46;;
69670;Laerm;66535;52.370;4.832;2024-01-06T02:24:20;45.54;39.55;50.23;;
69670;Laerm;66535;52.370;4.832;2024-01-06T02:24:52;43.69;38.66;47.23;;
69670;Laerm;66535;52.370;4.832;2024-01-06T02:25:24;47.74;37.89;58.27;;
69670;Laerm;66535;52.370;4.832;2024-01-06T02:25:55;40.05;37.03;44.27;;
69670;Laerm;66535;52.370;4.832;2024-01-06T02:26:27;46.84;39.00;53.51;;
69670;Laerm;66535;52.370;4.832;2024-01-06T02:26:59;40.68;37.15;45.56;;
69670;Laerm;66535;52.370;4.832;2024-01-06T02:27:30;45.75;37.61;56.77;;
69670;Laerm;66535;52.370;4.832;2024-01-06T02:28:03;38.68;35.78;42.32;;
69670;Laerm;66535;52.370;4.832;2024-01-06T02:28:34;39.41;36.90;44.12;;
69670;Laerm;66535;52.370;4.832;2024-01-06T02:29:07;46.66;37.85;56.79;;
69670;Laerm;66535;52.370;4.832;2024-01-06T02:29:38;44.93;37.36;51.08;;
69670;Laerm;66535;52.370;4.832;2024-01-06T02:30:10;39.15;36.56;42.73;;
69670;Laerm;66535;52.370;4.832;2024-01-06T02:30:43;39.06;37.02;46.69;;
69670;Laerm;66535;52.370;4.832;2024-01-06T02:31:14;49.00;37.54;60.67;;
69670;Laerm;66535;52.370;4.832;2024-01-06T02:31:45;47.07;41.77;56.00;;
69670;Laerm;66535;52.370;4.832;2024-01-06T02:32:16;48.81;38.81;57.69;;
69670;Laerm;66535;52.370;4.832;2024-01-06T02:32:48;40.35;36.96;45.14;;
69670;Laerm;66535;52.370;4.832;2024-01-06T02:33:19;38.71;36.33;41.76;;
69670;Laerm;66535;52.370;4.832;2024-01-06T02:33:51;40.14;37.40;54.91;;
69670;Laerm;66535;52.370;4.832;2024-01-06T02:34:22;41.90;37.89;50.57;;
69670;Laerm;66535;52.370;4.832;2024-01-06T02:34:53;46.07;39.78;53.25;;
69670;Laerm;66535;52.370;4.832;2024-01-06T02:35:25;43.42;37.84;50.42;;
69670;Laerm;66535;52.370;4.832;2024-01-06T02:35:56;39.84;36.79;48.83;;
69670;Laerm;66535;52.370;4.832;2024-01-06T02:36:27;42.61;37.26;47.44;;
69670;Laerm;66535;52.370;4.832;2024-01-06T02:36:59;43.81;37.50;53.34;;
69670;Laerm;66535;52.370;4.832;2024-01-06T02:37:32;39.64;36.60;44.47;;
69670;Laerm;66535;52.370;4.832;2024-01-06T02:38:03;44.76;38.48;55.08;;
69670;Laerm;66535;52.370;4.832;2024-01-06T02:38:34;39.59;37.45;44.71;;
69670;Laerm;66535;52.370;4.832;2024-01-06T02:39:06;43.32;37.29;49.57;;
69670;Laerm;66535;52.370;4.832;2024-01-06T02:39:38;42.39;39.35;52.80;;
69670;Laerm;66535;52.370;4.832;2024-01-06T02:40:10;42.73;37.87;48.94;;
69670;Laerm;66535;52.370;4.832;2024-01-06T02:40:42;47.78;42.10;52.81;;
69670;Laerm;66535;52.370;4.832;2024-01-06T02:41:13;43.90;38.82;53.11;;
69670;Laerm;66535;52.370;4.832;2024-01-06T02:41:46;41.21;37.42;47.14;;
69670;Laerm;66535;52.370;4.832;2024-01-06T02:42:17;39.33;37.31;43.41;;
69670;Laerm;66535;52.370;4.832;2024-01-06T02:42:48;41.51;36.89;47.86;;
69670;Laerm;66535;52.370;4.832;2024-01-06T02:43:19;47.12;39.53;56.88;;
69670;Laerm;66535;52.370;4.832;2024-01-06T02:43:54;44.06;36.64;50.21;;
69670;Laerm;66535;52.370;4.832;2024-01-06T02:44:26;39.06;36.92;48.67;;
69670;Laerm;66535;52.370;4.832;2024-01-06T02:44:57;45.77;37.73;55.54;;
69670;Laerm;66535;52.370;4.832;2024-01-06T02:45:28;39.51;36.73;46.94;;
69670;Laerm;66535;52.370;4.832;2024-01-06T02:46:00;39.41;37.05;51.74;;
69670;Laerm;66535;52.370;4.832;2024-01-06T02:46:32;46.05;39.78;52.77;;
69670;Laerm;66535;52.370;4.832;2024-01-06T02:47:03;46.67;38.13;54.08;;
69670;Laerm;66535;52.370;4.832;2024-01-06T02:47:35;44.91;38.27;52.24;;
69670;Laerm;66535;52.370;4.832;2024-01-06T02:48:07;43.21;37.92;52.38;;
69670;Laerm;66535;52.370;4.832;2024-01-06T02:48:39;38.95;36.03;42.64;;
69670;Laerm;66535;52.370;4.832;2024-01-06T02:49:10;42.17;36.66;53.01;;
69670;Laerm;66535;52.370;4.832;2024-01-06T02:49:42;41.64;36.96;50.86;;
69670;Laerm;66535;52.370;4.832;2024-01-06T02:50:13;50.45;41.29;57.57;;
69670;Laerm;66535;52.370;4.832;2024-01-06T02:50:45;41.62;38.39;53.25;;
69670;Laerm;66535;52.370;4.832;2024-01-06T02:51:16;47.19;39.65;55.65;;
69670;Laerm;66535;52.370;4.832;2024-01-06T02:51:47;49.40;43.27;59.38;;
69670;Laerm;66535;52.370;4.832;2024-01-06T02:52:19;45.29;39.42;53.64;;
69670;Laerm;66535;52.370;4.832;2024-01-06T02:52:52;44.48;40.56;49.64;;
69670;Laerm;66535;52.370;4.832;2024-01-06T02:53:23;49.24;42.54;55.93;;
69670;Laerm;66535;52.370;4.832;2024-01-06T02:53:54;43.20;37.89;51.38;;
69670;Laerm;66535;52.370;4.832;2024-01-06T02:54:26;42.19;37.69;50.30;;
69670;Laerm;66535;52.370;4.832;2024-01-06T02:54:58;41.77;36.57;47.28;;
69670;Laerm;66535;52.370;4.832;2024-01-06T02:55:29;39.15;36.70;45.00;;
69670;Laerm;66535;52.370;4.832;2024-01-06T02:56:00;43.80;38.97;48.36;;
69670;Laerm;66535;52.370;4.832;2024-01-06T02:56:32;49.17;40.03;56.35;;
69670;Laerm;66535;52.370;4.832;2024-01-06T02:57:04;45.58;39.11;52.39;;
69670;Laerm;66535;52.370;4.832;2024-01-06T02:57:36;41.41;38.48;49.34;;